Lady Nur — 3FFE2 — position and weather

sailwx.info

Track history (hours):
 
Tides and Currents Weather Stations Pressure Air Temp Water Temp Dewpoint Dewpoint Depression Visibility Wind Speed Wind Dir Waves Ship Positions

Lady Nur

Last reported at 2017-Apr-30 03:58 UTC. Time now 2017-Apr-30 16:51 UTC.
Position N 40°58' E 028°54'.

Length 82 m; draft 2.7 m.

Type: Cargo ship. MMSI: 373237000.

Date/timePositionNaut miles runAvg speedWind from/ knotsBaromVisibWave heightAir tempDewpointWater temp
2017-Apr-30 03:58N 40°58' E 028°54'0 0.0
2017-Apr-29 09:42N 40°58' E 028°54'0 0.0
2017-Apr-29 09:25N 40°58' E 028°54'0 0.0
2017-Apr-29 05:14N 40°58' E 028°54'0 0.1
2017-Apr-29 02:19N 40°58' E 028°53'1 2.9
2017-Apr-29 01:55N 40°58' E 028°55'3 3.6
2017-Apr-29 01:11N 40°55' E 028°57'5 4.7
2017-Apr-29 00:05N 40°52' E 028°52'0 4.6
2017-Apr-29 00:00N 40°52' E 028°51'3 4.5
2017-Apr-28 23:26N 40°51' E 028°48'141 5.7
2017-Apr-27 22:33N 39°56' E 025°58'1 9.0
2017-Apr-27 22:29N 39°55' E 025°57'  
2017-Apr-25 07:53N 34°32' E 032°46'3 8.3
2017-Apr-25 07:30N 34°31' E 032°50'4 8.3
2017-Apr-25 06:58N 34°30' E 032°55'4 8.2
2017-Apr-25 06:30N 34°29' E 032°59'4 8.3
2017-Apr-25 06:00N 34°28' E 033°04'33 8.7
2017-Apr-25 02:12N 34°18' E 033°43'  
2017-Apr-21 11:43N 33°54' E 035°31'0 0.0
2017-Apr-21 11:22N 33°54' E 035°31'0 0.0
2017-Apr-21 10:43N 33°54' E 035°31'  
Track history (hours):
 
Tides and Currents Weather Stations Pressure Air Temp Water Temp Dewpoint Dewpoint Depression Visibility Wind Speed Wind Dir Waves Ship Positions

Lady Nur

Last reported at 2017-Apr-30 03:58 UTC. Time now 2017-Apr-30 16:51 UTC.
Position N 40°58' E 028°54'.

Length 82 m; draft 2.7 m.

Type: Cargo ship. MMSI: 373237000.

Date/timePositionNaut miles runAvg speedWind from/ knotsBaromVisibWave heightAir tempDewpointWater temp
2017-Apr-30 03:58N 40°58' E 028°54'0 0.0
2017-Apr-29 09:42N 40°58' E 028°54'0 0.0
2017-Apr-29 09:25N 40°58' E 028°54'0 0.0
2017-Apr-29 05:14N 40°58' E 028°54'0 0.1
2017-Apr-29 02:19N 40°58' E 028°53'1 2.9
2017-Apr-29 01:55N 40°58' E 028°55'3 3.6
2017-Apr-29 01:11N 40°55' E 028°57'5 4.7
2017-Apr-29 00:05N 40°52' E 028°52'0 4.6
2017-Apr-29 00:00N 40°52' E 028°51'3 4.5
2017-Apr-28 23:26N 40°51' E 028°48'141 5.7
2017-Apr-27 22:33N 39°56' E 025°58'1 9.0
2017-Apr-27 22:29N 39°55' E 025°57'  
2017-Apr-25 07:53N 34°32' E 032°46'3 8.3
2017-Apr-25 07:30N 34°31' E 032°50'4 8.3
2017-Apr-25 06:58N 34°30' E 032°55'4 8.2
2017-Apr-25 06:30N 34°29' E 032°59'4 8.3
2017-Apr-25 06:00N 34°28' E 033°04'33 8.7
2017-Apr-25 02:12N 34°18' E 033°43'  
2017-Apr-21 11:43N 33°54' E 035°31'0 0.0
2017-Apr-21 11:22N 33°54' E 035°31'0 0.0
2017-Apr-21 10:43N 33°54' E 035°31'  

Dump ship's entire track history